• Join FlightAware (Why Join?)
  • Login
  • US Flag 
Rudolph Flight #1: Arrived! 
09:41PM EST


 

Airport Tracker/Info


-or-


 

Live Flight TrackerFlight Track Log ✈ FIV521 ✈ 19-Apr-2013 ✈ KINT - KMCO

Flight Track Log - Related Links

Times and Time Zones

All times are in EDT time to prevent confusion due to time zone crossing. See the FIV521 flight status page for this flight to view local times or setup timezone preferences in your user account.

Time Position Orientation Groundspeed Altitude Reporting Facility
EDT Latitude Longitude Course Direction KTS MPH feet Rate Location/Type
02:05PM 36.0564 -80.1886 180° South 158 182 6,800  Level Atlanta Center
02:06PM 35.9983 -80.1992 188° South 199 229 9,300 2,400 Climbing Atlanta Center
02:07PM 35.9275 -80.2025 182° South 229 264 11,600 1,320 Climbing Atlanta Center
02:08PM 35.8444 -80.2142 186° South 269 310 12,000 1,020 Climbing Atlanta Center
02:09PM 35.7594 -80.2333 190° South 301 346 13,700 1,920 Climbing Atlanta Center
02:10PM 35.5507 -80.2333 180° South  Level FlightAware Approximate
02:10PM 35.6725 -80.2606 194° South 320 368 15,900  Level Atlanta Center
02:11PM 35.5836 -80.2875 194° South 314 361 17,900 2,040 Climbing Atlanta Center
02:12PM 35.5031 -80.3092 192° South 307 353 20,000 2,100 Climbing Atlanta Center
02:13PM 35.4203 -80.3306 192° South 307 353 22,100 1,800 Climbing Atlanta Center
02:14PM 35.3356 -80.3550 193° South 307 353 23,700 1,560 Climbing Atlanta Center
02:15PM 35.2525 -80.3764 192° South 312 359 25,300 1,500 Climbing Atlanta Center
02:16PM 35.1719 -80.3978 192° South 312 359 26,800 1,500 Climbing Atlanta Center
02:17PM 35.0872 -80.4244 194° South 319 367 28,300 1,500 Climbing Atlanta Center
02:18PM 35.0022 -80.4458 192° South 313 360 29,800 780 Climbing Atlanta Center
02:21PM 34.7986 -80.5061 194° South 319 367 31,000 300 Climbing Jacksonville Center
02:22PM 34.7031 -80.5289 191° South 339 390 31,000  Level Jacksonville Center
02:23PM 34.6033 -80.5569 193° South 351 404 31,000 420 Level Jacksonville Center
02:24PM 34.5078 -80.5819 192° South 358 412 31,900 900 Climbing Jacksonville Center
02:25PM 34.4125 -80.6072 192° South 358 412 32,900 1,080 Climbing Jacksonville Center
02:27PM 34.2256 -80.6550 192° South 353 406 35,200 1,260 Climbing Jacksonville Center
02:28PM 34.1342 -80.6822 194° South 348 400 36,700 1,440 Climbing Jacksonville Center
02:29PM 34.0469 -80.7069 193° South 337 388 38,100 1,200 Climbing Jacksonville Center
02:30PM 33.9578 -80.7294 192° South 332 382 39,200 900 Climbing Jacksonville Center
02:31PM 33.8642 -80.7542 192° South 337 388 39,900 360 Climbing Jacksonville Center
02:32PM 33.7642 -80.7667 186° South 348 400 40,000  Climbing Jacksonville Center
02:33PM 33.6603 -80.7817 187° South 368 423 40,000  Level Jacksonville Center
02:34PM 33.5539 -80.7942 186° South 381 438 40,000  Level Jacksonville Center
02:35PM 33.4478 -80.8067 186° South 386 444 40,000  Level Jacksonville Center
02:36PM 33.3372 -80.8214 186° South 386 444 40,000  Level Jacksonville Center
02:37PM 33.2292 -80.8364 187° South 386 444 40,000  Level Jacksonville Center
02:38PM 33.1228 -80.8489 186° South 386 444 40,000  Level Jacksonville Center
02:39PM 33.0103 -80.8639 186° South 391 450 40,000  Level Jacksonville Center
02:40PM 32.9000 -80.8761 185° South 396 456 40,000  Level Jacksonville Center
02:41PM 32.7894 -80.8886 185° South 396 456 40,000  Level Jacksonville Center
02:42PM 32.6811 -80.9008 185° South 401 461 40,000  Level Jacksonville Center
02:43PM 32.5728 -80.9181 188° South 401 461 40,000  Level Jacksonville Center
02:44PM 32.4625 -80.9303 185° South 401 461 40,000  Level Jacksonville Center
02:45PM 32.3478 -80.9450 186° South 390 449 40,000  Level Jacksonville Center
02:46PM 32.2394 -80.9572 185° South 397 457 40,000  Level Jacksonville Center
02:47PM 32.1394 -80.9667 185° South 402 463 40,000  Level Jacksonville Center
02:48PM 32.0144 -80.9814 186° South 413 475 40,000  Level Jacksonville Center
02:49PM 31.9039 -80.9983 187° South 406 467 40,000  Level Jacksonville Center
02:50PM 31.8039 -81.0103 186° South 406 467 40,000  Level Jacksonville Center
02:51PM 31.6789 -81.0250 186° South 406 467 40,000  Level Jacksonville Center
02:52PM 31.5683 -81.0394 186° South 406 467 40,000  Level Jacksonville Center
02:53PM 31.4664 -81.0511 186° South 411 473 40,000  Level Jacksonville Center
02:54PM 31.3558 -81.0681 187° South 406 467 40,000  Level Jacksonville Center
02:55PM 31.2286 -81.0850 186° South 411 473 40,000  Level Jacksonville Center
02:56PM 31.1142 -81.0969 185° South 411 473 40,000  Level Jacksonville Center
02:57PM 31.0036 -81.1136 187° South 411 473 40,000 -780 Level Jacksonville Center
02:58PM 30.8889 -81.1231 184° South 406 467 38,500 -1,800 Descending Jacksonville Center
02:59PM 30.7744 -81.1372 186° South 411 473 36,400 -2,100 Descending Jacksonville Center
03:00PM 30.6617 -81.1489 185° South 411 473 34,400 -1,260 Descending Jacksonville Center
03:01PM 30.5553 -81.1508 181° South 403 464 34,000 -780 Descending Jacksonville Center
03:02PM 30.4425 -81.1481 179° South 398 458 32,900 -1,380 Descending Jacksonville Center
03:03PM 30.3256 -81.1456 179° South 408 470 31,300 -1,740 Descending Jacksonville Center
03:04PM 30.2086 -81.1403 178° South 420 483 29,500 -1,800 Descending Jacksonville Center
03:05PM 30.0894 -81.1378 179° South 425 489 27,700 -1,860 Descending Jacksonville Center
03:06PM 29.9683 -81.1350 179° South 425 489 25,900 -1,860 Descending Jacksonville Center
03:07PM 29.8514 -81.1325 179° South 430 495 24,100 -1,260 Descending Jacksonville Center
03:08PM 29.7367 -81.1272 178° South 425 489 23,400 -1,320 Descending Jacksonville Center
03:09PM 29.6217 -81.1247 179° South 419 482 21,500 -1,860 Descending Jacksonville Center
03:10PM 29.5089 -81.1242 180° South 413 475 19,700 -1,680 Descending Jacksonville Center
03:11PM 29.4128 -81.1189 177° South 401 461 18,200 -1,620 Descending Jacksonville Center
03:12PM 29.3064 -81.1136 178° South 395 455 16,500 -1,740 Descending Jacksonville Center
03:13PM 29.2039 -81.1061 176° South 384 442 14,800 -1,680 Descending Jacksonville Center
03:14PM 29.1058 -81.1006 177° South 371 427 13,200 -1,440 Descending Jacksonville Center
03:15PM 29.0181 -81.0928 176° South 348 400 12,000 -600 Descending Jacksonville Center
03:16PM 28.9364 -81.0800 172° South 318 366 12,000 -960 Level Jacksonville Center
03:17PM 28.8569 -81.0647 170° South 299 344 10,100 -2,220 Descending Jacksonville Center
03:17PM 28.8167 -81.0500 162° South 280 322 9,100 -1,980 Descending Orlando TRACON
03:18PM 28.7667 -81.1000 221° Southwest 232 267 7,300 -1,620 Descending Orlando TRACON
03:19PM 28.7667 -81.1667 270° West 213 245 5,800 -1,500 Descending Orlando TRACON
03:20PM 28.7500 -81.2333 254° West 215 247 4,400 -900 Descending Orlando TRACON
03:21PM 28.7333 -81.3000 254° West 178 205 4,000 -420 Descending Orlando TRACON
03:22PM 28.7000 -81.3167 204° Southwest 174 200 3,600 -600 Descending Orlando TRACON
03:23PM 28.6667 -81.3333 204° Southwest 167 192 2,900 -600 Descending Orlando TRACON
03:24PM 28.6167 -81.3333 180° South 163 188 2,500 -240 Descending Orlando TRACON
03:25PM 28.5667 -81.3333 180° South 169 194 2,500 -360 Level Orlando TRACON
03:26PM 28.5333 -81.3333 180° South 151 174 1,800 -900 Descending Orlando TRACON
03:27PM 28.4833 -81.3333 180° South 124 143 900 -780 Descending Orlando TRACON
03:28PM 28.4500 -81.3333 180° South 119 137 300 -600 Descending Orlando TRACON